Time,TemperatureF,DewpointF,PressureIn,WindDirection,WindDirectionDegrees,WindSpeedMPH,WindSpeedGustMPH,Humidity,HourlyPrecipIn,Conditions,Clouds,dailyrainin,SoftwareType,DateUTC
2013-03-10 00:00:00,41.0,33.0,30.33,North,360,0.0,0.0,73,0.00,,,0.00,Wunderground v.1.15,2013-03-10 05:00:00,
2013-03-10 00:05:00,40.8,33.2,30.33,North,360,0.0,0.0,74,0.00,,,0.00,Wunderground v.1.15,2013-03-10 05:05:00,
2013-03-10 00:10:00,40.6,32.6,30.33,North,360,0.0,0.0,73,0.00,,,0.00,Wunderground v.1.15,2013-03-10 05:10:00,
2013-03-10 00:20:00,41.1,31.7,30.33,North,360,0.0,0.0,69,0.00,,,0.00,Wunderground v.1.15,2013-03-10 05:20:00,
2013-03-10 00:25:00,41.5,32.4,30.33,North,360,0.0,0.0,70,0.00,,,0.00,Wunderground v.1.15,2013-03-10 05:25:00,
2013-03-10 00:35:00,41.2,31.8,30.33,North,360,0.0,0.0,69,0.00,,,0.00,Wunderground v.1.15,2013-03-10 05:35:00,
2013-03-10 00:45:00,40.4,31.7,30.33,North,360,0.0,0.0,71,0.00,,,0.00,Wunderground v.1.15,2013-03-10 05:45:00,
2013-03-10 00:50:00,40.1,32.8,30.34,North,360,0.0,0.0,75,0.00,,,0.00,Wunderground v.1.15,2013-03-10 05:50:00,
2013-03-10 01:00:00,39.8,32.8,30.34,North,360,0.0,0.0,76,0.00,,,0.00,Wunderground v.1.15,2013-03-10 06:00:00,
2013-03-10 01:05:00,39.6,32.7,30.34,North,360,0.0,0.0,76,0.00,,,0.00,Wunderground v.1.15,2013-03-10 06:05:00,
2013-03-10 01:15:00,39.2,32.6,30.34,North,360,0.0,0.0,77,0.00,,,0.00,Wunderground v.1.15,2013-03-10 06:15:00,
2013-03-10 01:25:00,38.8,32.2,30.33,North,360,0.0,0.0,77,0.00,,,0.00,Wunderground v.1.15,2013-03-10 06:25:00,
2013-03-10 01:35:00,38.5,32.6,30.33,North,360,0.0,0.0,79,0.00,,,0.00,Wunderground v.1.15,2013-03-10 06:35:00,
2013-03-10 01:40:00,38.4,33.1,30.33,North,360,0.0,0.0,81,0.00,,,0.00,Wunderground v.1.15,2013-03-10 06:40:00,
2013-03-10 01:50:00,38.0,32.7,30.33,North,360,0.0,0.0,81,0.00,,,0.00,Wunderground v.1.15,2013-03-10 06:50:00,
2013-03-10 03:00:00,37.9,32.6,30.32,North,360,0.0,0.0,81,0.00,,,0.00,Wunderground v.1.15,2013-03-10 07:00:00,
2013-03-10 03:05:00,37.9,32.6,30.32,North,360,0.0,0.0,81,0.00,,,0.00,Wunderground v.1.15,2013-03-10 07:05:00,
2013-03-10 03:15:00,37.7,32.7,30.32,North,360,0.0,0.0,82,0.00,,,0.00,Wunderground v.1.15,2013-03-10 07:15:00,
2013-03-10 03:20:00,37.5,32.2,30.32,North,360,0.0,0.0,81,0.00,,,0.00,Wunderground v.1.15,2013-03-10 07:20:00,
2013-03-10 03:30:00,36.9,31.6,30.32,North,360,0.0,0.0,81,0.00,,,0.00,Wunderground v.1.15,2013-03-10 07:30:00,
2013-03-10 03:40:00,36.2,30.9,30.31,North,360,0.0,0.0,81,0.00,,,0.00,Wunderground v.1.15,2013-03-10 07:40:00,
2013-03-10 03:50:00,36.1,31.4,30.31,North,360,0.0,0.0,83,0.00,,,0.00,Wunderground v.1.15,2013-03-10 07:50:00,
2013-03-10 04:00:00,35.9,30.9,30.31,North,360,0.0,0.0,82,0.00,,,0.00,Wunderground v.1.15,2013-03-10 08:00:00,
2013-03-10 04:05:00,35.9,31.5,30.30,North,360,0.0,0.0,84,0.00,,,0.00,Wunderground v.1.15,2013-03-10 08:05:00,
2013-03-10 04:15:00,36.0,31.9,30.30,North,360,0.0,0.0,85,0.00,,,0.00,Wunderground v.1.15,2013-03-10 08:15:00,
2013-03-10 04:25:00,36.6,32.5,30.30,North,360,0.0,0.0,85,0.00,,,0.00,Wunderground v.1.15,2013-03-10 08:25:00,
2013-03-10 04:35:00,37.1,32.7,30.30,North,360,0.0,0.0,84,0.00,,,0.00,Wunderground v.1.15,2013-03-10 08:35:00,
2013-03-10 04:45:00,37.1,32.4,30.30,North,360,0.0,0.0,83,0.00,,,0.00,Wunderground v.1.15,2013-03-10 08:45:00,
2013-03-10 04:55:00,37.0,32.0,30.30,North,360,0.0,0.0,82,0.00,,,0.00,Wunderground v.1.15,2013-03-10 08:55:00,
2013-03-10 05:05:00,37.2,31.9,30.30,North,360,0.0,0.0,81,0.00,,,0.00,Wunderground v.1.15,2013-03-10 09:05:00,
2013-03-10 05:15:00,37.7,31.5,30.31,North,360,0.0,0.0,78,0.00,,,0.00,Wunderground v.1.15,2013-03-10 09:15:00,
2013-03-10 05:25:00,37.9,31.7,30.31,North,360,0.0,0.0,78,0.00,,,0.00,Wunderground v.1.15,2013-03-10 09:25:00,
2013-03-10 05:35:00,37.4,31.5,30.31,North,360,0.0,0.0,79,0.00,,,0.00,Wunderground v.1.15,2013-03-10 09:35:00,
2013-03-10 05:45:00,36.8,30.9,30.31,North,360,0.0,0.0,79,0.00,,,0.00,Wunderground v.1.15,2013-03-10 09:45:00,
2013-03-10 05:50:00,36.8,31.2,30.31,North,360,0.0,0.0,80,0.00,,,0.00,Wunderground v.1.15,2013-03-10 09:50:00,
2013-03-10 06:00:00,36.6,31.0,30.31,North,360,0.0,0.0,80,0.00,,,0.00,Wunderground v.1.15,2013-03-10 10:00:00,
2013-03-10 06:05:00,36.7,31.4,30.31,North,360,0.0,0.0,81,0.00,,,0.00,Wunderground v.1.15,2013-03-10 10:05:00,
2013-03-10 06:15:00,36.9,31.6,30.31,North,360,0.0,0.0,81,0.00,,,0.00,Wunderground v.1.15,2013-03-10 10:15:00,
2013-03-10 06:25:00,37.0,31.7,30.31,North,360,0.0,0.0,81,0.00,,,0.00,Wunderground v.1.15,2013-03-10 10:25:00,
2013-03-10 06:35:00,36.6,31.0,30.31,North,360,0.0,0.0,80,0.00,,,0.00,Wunderground v.1.15,2013-03-10 10:35:00,
2013-03-10 06:45:00,36.2,30.6,30.32,North,360,0.0,0.0,80,0.00,,,0.00,Wunderground v.1.15,2013-03-10 10:45:00,
2013-03-10 06:55:00,35.6,30.0,30.32,North,360,0.0,0.0,80,0.00,,,0.00,Wunderground v.1.15,2013-03-10 10:55:00,
2013-03-10 07:05:00,34.9,29.7,30.33,North,360,0.0,0.0,81,0.00,,,0.00,Wunderground v.1.15,2013-03-10 11:05:00,
2013-03-10 07:15:00,34.8,30.2,30.33,North,360,0.0,0.0,83,0.00,,,0.00,Wunderground v.1.15,2013-03-10 11:15:00,
2013-03-10 07:25:00,35.5,30.5,30.33,North,360,0.0,0.0,82,0.00,,,0.00,Wunderground v.1.15,2013-03-10 11:25:00,
2013-03-10 07:35:00,35.9,30.9,30.33,North,360,0.0,0.0,82,0.00,,,0.00,Wunderground v.1.15,2013-03-10 11:35:00,
2013-03-10 07:45:00,35.9,31.2,30.34,North,360,0.0,0.0,83,0.00,,,0.00,Wunderground v.1.15,2013-03-10 11:45:00,
2013-03-10 07:50:00,36.1,31.1,30.34,North,360,0.0,0.0,82,0.00,,,0.00,Wunderground v.1.15,2013-03-10 11:50:00,
2013-03-10 08:00:00,36.0,31.0,30.34,North,360,0.0,0.0,82,0.00,,,0.00,Wunderground v.1.15,2013-03-10 12:00:00,
2013-03-10 08:05:00,35.9,30.9,30.34,North,360,0.0,0.0,82,0.00,,,0.00,Wunderground v.1.15,2013-03-10 12:05:00,
2013-03-10 08:15:00,36.0,31.3,30.34,North,360,0.0,0.0,83,0.00,,,0.00,Wunderground v.1.15,2013-03-10 12:15:00,
2013-03-10 08:25:00,36.5,32.1,30.34,NW,304,0.0,0.0,84,0.00,,,0.00,Wunderground v.1.15,2013-03-10 12:25:00,
2013-03-10 08:35:00,37.3,32.6,30.34,NW,304,0.0,0.0,83,0.00,,,0.00,Wunderground v.1.15,2013-03-10 12:35:00,
2013-03-10 08:40:00,37.8,32.5,30.34,NW,304,0.0,0.0,81,0.00,,,0.00,Wunderground v.1.15,2013-03-10 12:40:00,
2013-03-10 08:50:00,39.6,33.6,30.34,NW,304,0.0,0.0,79,0.00,,,0.00,Wunderground v.1.15,2013-03-10 12:50:00,
2013-03-10 09:00:00,42.6,36.2,30.34,NW,304,0.0,0.0,78,0.00,,,0.00,Wunderground v.1.15,2013-03-10 13:00:00,
2013-03-10 09:05:00,44.0,35.2,30.34,NW,304,0.0,0.0,71,0.00,,,0.00,Wunderground v.1.15,2013-03-10 13:05:00,
2013-03-10 09:15:00,46.9,32.9,30.34,NE,53,0.0,0.0,58,0.00,,,0.00,Wunderground v.1.15,2013-03-10 13:15:00,
2013-03-10 09:25:00,48.7,33.2,30.34,ENE,71,0.0,0.0,55,0.00,,,0.00,Wunderground v.1.15,2013-03-10 13:25:00,
2013-03-10 09:35:00,49.8,30.4,30.34,SE,136,1.0,1.0,47,0.00,,,0.00,Wunderground v.1.15,2013-03-10 13:35:00,
2013-03-10 09:45:00,51.1,31.0,30.34,ESE,121,1.0,1.0,46,0.00,,,0.00,Wunderground v.1.15,2013-03-10 13:45:00,
2013-03-10 09:55:00,51.8,29.4,30.34,SE,130,1.0,2.0,42,0.00,,,0.00,Wunderground v.1.15,2013-03-10 13:55:00,
2013-03-10 10:05:00,52.4,30.0,30.35,East,93,2.0,2.0,42,0.00,,,0.00,Wunderground v.1.15,2013-03-10 14:05:00,
2013-03-10 10:15:00,52.9,29.8,30.35,SE,144,3.0,3.0,41,0.00,,,0.00,Wunderground v.1.15,2013-03-10 14:15:00,
2013-03-10 10:20:00,53.0,29.9,30.35,SE,138,3.0,4.0,41,0.00,,,0.00,Wunderground v.1.15,2013-03-10 14:20:00,
2013-03-10 10:25:00,53.9,31.9,30.35,ESE,119,3.0,4.0,43,0.00,,,0.00,Wunderground v.1.15,2013-03-10 14:25:00,
2013-03-10 10:35:00,54.6,31.9,30.36,ESE,109,1.0,1.0,42,0.00,,,0.00,Wunderground v.1.15,2013-03-10 14:35:00,
2013-03-10 10:45:00,54.8,29.7,30.36,SE,134,1.0,1.0,38,0.00,,,0.00,Wunderground v.1.15,2013-03-10 14:45:00,
2013-03-10 10:55:00,55.5,29.6,30.36,SSE,164,1.0,1.0,37,0.00,,,0.00,Wunderground v.1.15,2013-03-10 14:55:00,
2013-03-10 11:05:00,56.2,29.6,30.36,ESE,113,1.0,1.0,36,0.00,,,0.00,Wunderground v.1.15,2013-03-10 15:05:00,
2013-03-10 11:15:00,56.6,29.2,30.36,ESE,107,1.0,1.0,35,0.00,,,0.00,Wunderground v.1.15,2013-03-10 15:15:00,
2013-03-10 11:20:00,56.6,29.2,30.36,SE,126,1.0,1.0,35,0.00,,,0.00,Wunderground v.1.15,2013-03-10 15:20:00,
2013-03-10 11:25:00,56.7,27.9,30.36,SE,141,1.0,1.0,33,0.00,,,0.00,Wunderground v.1.15,2013-03-10 15:25:00,
2013-03-10 11:35:00,57.3,27.7,30.36,East,83,1.0,2.0,32,0.00,,,0.00,Wunderground v.1.15,2013-03-10 15:35:00,
2013-03-10 11:40:00,58.2,29.9,30.35,SSE,149,2.0,2.0,34,0.00,,,0.00,Wunderground v.1.15,2013-03-10 15:40:00,
2013-03-10 11:45:00,58.6,26.4,30.35,SE,126,2.0,2.0,29,0.00,,,0.00,Wunderground v.1.15,2013-03-10 15:45:00,
2013-03-10 11:55:00,58.5,28.7,30.35,ESE,119,2.0,2.0,32,0.00,,,0.00,Wunderground v.1.15,2013-03-10 15:55:00,
2013-03-10 12:00:00,58.6,28.0,30.34,ESE,105,1.0,5.0,31,0.00,,,0.00,Wunderground v.1.15,2013-03-10 16:00:00,
2013-03-10 12:05:00,58.5,27.1,30.34,ESE,122,2.0,5.0,30,0.00,,,0.00,Wunderground v.1.15,2013-03-10 16:05:00,
2013-03-10 12:15:00,59.3,27.8,30.34,ESE,120,2.0,2.0,30,0.00,,,0.00,Wunderground v.1.15,2013-03-10 16:15:00,
2013-03-10 12:25:00,59.7,29.0,30.33,SE,135,2.0,2.0,31,0.00,,,0.00,Wunderground v.1.15,2013-03-10 16:25:00,
2013-03-10 12:35:00,60.0,27.6,30.33,East,88,3.0,4.0,29,0.00,,,0.00,Wunderground v.1.15,2013-03-10 16:35:00,
2013-03-10 12:45:00,60.5,28.9,30.33,SE,130,2.0,2.0,30,0.00,,,0.00,Wunderground v.1.15,2013-03-10 16:45:00,
2013-03-10 12:55:00,60.8,28.3,30.33,ESE,117,2.0,4.0,29,0.00,,,0.00,Wunderground v.1.15,2013-03-10 16:55:00,
2013-03-10 13:05:00,60.6,27.3,30.32,NE,48,4.0,4.0,28,0.00,,,0.00,Wunderground v.1.15,2013-03-10 17:05:00,
2013-03-10 13:15:00,61.2,28.7,30.32,SE,138,2.0,8.0,29,0.00,,,0.00,Wunderground v.1.15,2013-03-10 17:15:00,
2013-03-10 13:25:00,61.7,28.2,30.32,East,95,2.0,3.0,28,0.00,,,0.00,Wunderground v.1.15,2013-03-10 17:25:00,
2013-03-10 13:30:00,62.9,28.4,30.32,ESE,110,2.0,2.0,27,0.00,,,0.00,Wunderground v.1.15,2013-03-10 17:30:00,
2013-03-10 13:40:00,62.6,27.2,30.31,SE,135,2.0,2.0,26,0.00,,,0.00,Wunderground v.1.15,2013-03-10 17:40:00,
2013-03-10 13:50:00,62.6,29.9,30.30,NE,52,1.0,5.0,29,0.00,,,0.00,Wunderground v.1.15,2013-03-10 17:50:00,
2013-03-10 14:00:00,62.9,26.5,30.30,SSW,193,2.0,4.0,25,0.00,,,0.00,Wunderground v.1.15,2013-03-10 18:00:00,
2013-03-10 14:05:00,62.9,27.5,30.29,SSE,153,2.0,4.0,26,0.00,,,0.00,Wunderground v.1.15,2013-03-10 18:05:00,
2013-03-10 14:15:00,63.1,26.7,30.29,East,101,2.0,5.0,25,0.00,,,0.00,Wunderground v.1.15,2013-03-10 18:15:00,
2013-03-10 14:25:00,63.8,28.2,30.28,SSE,152,2.0,4.0,26,0.00,,,0.00,Wunderground v.1.15,2013-03-10 18:25:00,
2013-03-10 14:35:00,64.0,24.4,30.28,South,189,4.0,5.0,22,0.00,,,0.00,Wunderground v.1.15,2013-03-10 18:35:00,
2013-03-10 14:45:00,64.3,24.6,30.28,South,176,4.0,4.0,22,0.00,,,0.00,Wunderground v.1.15,2013-03-10 18:45:00,
2013-03-10 14:55:00,64.4,22.4,30.28,SSE,161,2.0,4.0,20,0.00,,,0.00,Wunderground v.1.15,2013-03-10 18:55:00,
2013-03-10 15:05:00,64.6,25.9,30.27,East,92,2.0,6.0,23,0.00,,,0.00,Wunderground v.1.15,2013-03-10 19:05:00,
2013-03-10 15:15:00,64.6,22.6,30.27,NNE,28,2.0,3.0,20,0.00,,,0.00,Wunderground v.1.15,2013-03-10 19:15:00,
2013-03-10 15:25:00,65.4,20.7,30.27,SE,130,3.0,4.0,18,0.00,,,0.00,Wunderground v.1.15,2013-03-10 19:25:00,
2013-03-10 15:35:00,65.2,23.1,30.27,SSE,151,2.0,3.0,20,0.00,,,0.00,Wunderground v.1.15,2013-03-10 19:35:00,
2013-03-10 15:45:00,65.2,24.2,30.27,SE,142,3.0,4.0,21,0.00,,,0.00,Wunderground v.1.15,2013-03-10 19:45:00,
2013-03-10 15:50:00,65.4,23.2,30.27,SE,146,3.0,7.0,20,0.00,,,0.00,Wunderground v.1.15,2013-03-10 19:50:00,
2013-03-10 16:00:00,65.4,19.4,30.27,SE,138,4.0,10.0,17,0.00,,,0.00,Wunderground v.1.15,2013-03-10 20:00:00,
2013-03-10 16:05:00,65.4,20.7,30.27,SE,137,4.0,10.0,18,0.00,,,0.00,Wunderground v.1.15,2013-03-10 20:05:00,
2013-03-10 16:15:00,66.0,26.0,30.27,East,99,3.0,5.0,22,0.00,,,0.00,Wunderground v.1.15,2013-03-10 20:15:00,
2013-03-10 16:25:00,65.5,19.5,30.26,ESE,119,3.0,4.0,17,0.00,,,0.00,Wunderground v.1.15,2013-03-10 20:25:00,
2013-03-10 16:30:00,65.9,19.8,30.26,East,101,2.0,4.0,17,0.00,,,0.00,Wunderground v.1.15,2013-03-10 20:30:00,
2013-03-10 16:40:00,65.7,21.0,30.25,SE,139,3.0,7.0,18,0.00,,,0.00,Wunderground v.1.15,2013-03-10 20:40:00,
2013-03-10 16:50:00,66.2,23.9,30.25,East,98,3.0,3.0,20,0.00,,,0.00,Wunderground v.1.15,2013-03-10 20:50:00,
2013-03-10 17:00:00,66.1,22.6,30.25,East,99,3.0,3.0,19,0.00,,,0.00,Wunderground v.1.15,2013-03-10 21:00:00,
2013-03-10 17:05:00,65.6,23.4,30.25,ESE,121,3.0,3.0,20,0.00,,,0.00,Wunderground v.1.15,2013-03-10 21:05:00,
2013-03-10 17:15:00,65.2,25.4,30.25,East,100,3.0,4.0,22,0.00,,,0.00,Wunderground v.1.15,2013-03-10 21:15:00,
2013-03-10 17:25:00,65.0,24.1,30.25,East,97,3.0,6.0,21,0.00,,,0.00,Wunderground v.1.15,2013-03-10 21:25:00,
2013-03-10 17:30:00,64.9,24.0,30.25,ENE,74,3.0,3.0,21,0.00,,,0.00,Wunderground v.1.15,2013-03-10 21:30:00,
2013-03-10 17:40:00,64.7,23.8,30.25,ESE,110,2.0,2.0,21,0.00,,,0.00,Wunderground v.1.15,2013-03-10 21:40:00,
2013-03-10 17:45:00,64.5,25.8,30.25,ESE,105,3.0,4.0,23,0.00,,,0.00,Wunderground v.1.15,2013-03-10 21:45:00,
2013-03-10 17:50:00,64.3,24.6,30.25,ESE,103,4.0,4.0,22,0.00,,,0.00,Wunderground v.1.15,2013-03-10 21:50:00,
2013-03-10 18:00:00,63.5,25.0,30.25,SE,128,2.0,2.0,23,0.00,,,0.00,Wunderground v.1.15,2013-03-10 22:00:00,
2013-03-10 18:05:00,63.2,24.7,30.25,ESE,119,1.0,2.0,23,0.00,,,0.00,Wunderground v.1.15,2013-03-10 22:05:00,
2013-03-10 18:15:00,62.4,26.1,30.25,SE,139,1.0,4.0,25,0.00,,,0.00,Wunderground v.1.15,2013-03-10 22:15:00,
2013-03-10 18:20:00,62.2,26.9,30.25,ENE,71,1.0,1.0,26,0.00,,,0.00,Wunderground v.1.15,2013-03-10 22:20:00,
2013-03-10 18:25:00,62.2,27.8,30.26,East,94,0.0,1.0,27,0.00,,,0.00,Wunderground v.1.15,2013-03-10 22:25:00,
2013-03-10 18:30:00,62.0,26.7,30.26,SSE,166,0.0,0.0,26,0.00,,,0.00,Wunderground v.1.15,2013-03-10 22:30:00,
2013-03-10 18:40:00,61.8,27.4,30.26,NE,46,0.0,0.0,27,0.00,,,0.00,Wunderground v.1.15,2013-03-10 22:40:00,
2013-03-10 18:50:00,61.0,27.6,30.26,ENE,69,1.0,1.0,28,0.00,,,0.00,Wunderground v.1.15,2013-03-10 22:50:00,
2013-03-10 19:00:00,60.1,30.1,30.26,ENE,69,0.0,0.0,32,0.00,,,0.00,Wunderground v.1.15,2013-03-10 23:00:00,
2013-03-10 19:05:00,59.5,31.1,30.26,ENE,69,0.0,0.0,34,0.00,,,0.00,Wunderground v.1.15,2013-03-10 23:05:00,
2013-03-10 19:15:00,58.2,30.7,30.26,ENE,69,0.0,0.0,35,0.00,,,0.00,Wunderground v.1.15,2013-03-10 23:15:00,
2013-03-10 19:20:00,57.6,30.1,30.26,ENE,69,0.0,0.0,35,0.00,,,0.00,Wunderground v.1.15,2013-03-10 23:20:00,
2013-03-10 19:30:00,56.4,29.7,30.26,ENE,69,0.0,0.0,36,0.00,,,0.00,Wunderground v.1.15,2013-03-10 23:30:00,
2013-03-10 19:40:00,55.1,29.3,30.26,ENE,69,0.0,0.0,37,0.00,,,0.00,Wunderground v.1.15,2013-03-10 23:40:00,
2013-03-10 19:50:00,54.5,30.0,30.26,ENE,69,0.0,0.0,39,0.00,,,0.00,Wunderground v.1.15,2013-03-10 23:50:00,
2013-03-10 20:00:00,53.9,28.8,30.27,ENE,69,0.0,0.0,38,0.00,,,0.00,Wunderground v.1.15,2013-03-11 00:00:00,
2013-03-10 20:05:00,53.7,29.3,30.28,ENE,69,0.0,0.0,39,0.00,,,0.00,Wunderground v.1.15,2013-03-11 00:05:00,
2013-03-10 20:15:00,53.7,28.7,30.27,ENE,69,0.0,0.0,38,0.00,,,0.00,Wunderground v.1.15,2013-03-11 00:15:00,
2013-03-10 20:25:00,53.2,29.5,30.28,ENE,69,0.0,0.0,40,0.00,,,0.00,Wunderground v.1.15,2013-03-11 00:25:00,
2013-03-10 20:35:00,52.3,30.4,30.27,ENE,69,0.0,0.0,43,0.00,,,0.00,Wunderground v.1.15,2013-03-11 00:35:00,
2013-03-10 20:45:00,50.8,30.7,30.26,ENE,69,0.0,0.0,46,0.00,,,0.00,Wunderground v.1.15,2013-03-11 00:45:00,
2013-03-10 20:50:00,49.8,30.9,30.26,ENE,69,0.0,0.0,48,0.00,,,0.00,Wunderground v.1.15,2013-03-11 00:50:00,
2013-03-10 21:00:00,49.2,31.8,30.26,ENE,69,0.0,0.0,51,0.00,,,0.00,Wunderground v.1.15,2013-03-11 01:00:00,
2013-03-10 21:05:00,49.2,31.3,30.26,ENE,69,0.0,0.0,50,0.00,,,0.00,Wunderground v.1.15,2013-03-11 01:05:00,
2013-03-10 21:15:00,49.3,32.4,30.27,ENE,69,0.0,0.0,52,0.00,,,0.00,Wunderground v.1.15,2013-03-11 01:15:00,
2013-03-10 21:20:00,49.2,31.8,30.27,ENE,69,0.0,0.0,51,0.00,,,0.00,Wunderground v.1.15,2013-03-11 01:20:00,
2013-03-10 21:25:00,49.0,30.7,30.27,ENE,69,0.0,0.0,49,0.00,,,0.00,Wunderground v.1.15,2013-03-11 01:25:00,
2013-03-10 21:35:00,49.0,30.1,30.27,ENE,69,0.0,0.0,48,0.00,,,0.00,Wunderground v.1.15,2013-03-11 01:35:00,
2013-03-10 21:40:00,49.0,29.6,30.27,ENE,69,0.0,0.0,47,0.00,,,0.00,Wunderground v.1.15,2013-03-11 01:40:00,
2013-03-10 21:50:00,49.0,30.1,30.28,ENE,69,0.0,0.0,48,0.00,,,0.00,Wunderground v.1.15,2013-03-11 01:50:00,
2013-03-10 21:55:00,48.7,31.4,30.28,ENE,69,0.0,0.0,51,0.00,,,0.00,Wunderground v.1.15,2013-03-11 01:55:00,
2013-03-10 22:05:00,47.6,32.2,30.29,ENE,69,0.0,0.0,55,0.00,,,0.00,Wunderground v.1.15,2013-03-11 02:05:00,
2013-03-10 22:15:00,49.2,29.8,30.29,East,83,1.0,1.0,47,0.00,,,0.00,Wunderground v.1.15,2013-03-11 02:15:00,
2013-03-10 22:20:00,50.5,29.4,30.29,East,96,1.0,1.0,44,0.00,,,0.00,Wunderground v.1.15,2013-03-11 02:20:00,
2013-03-10 22:30:00,52.0,30.2,30.28,ESE,114,2.0,2.0,43,0.00,,,0.00,Wunderground v.1.15,2013-03-11 02:30:00,
2013-03-10 22:35:00,52.1,30.3,30.28,ESE,111,2.0,2.0,43,0.00,,,0.00,Wunderground v.1.15,2013-03-11 02:35:00,
2013-03-10 22:45:00,51.8,30.6,30.28,SE,125,2.0,2.0,44,0.00,,,0.00,Wunderground v.1.15,2013-03-11 02:45:00,
2013-03-10 22:55:00,51.6,30.9,30.28,SE,142,1.0,2.0,45,0.00,,,0.00,Wunderground v.1.15,2013-03-11 02:55:00,
2013-03-10 23:05:00,51.0,30.9,30.29,SE,137,1.0,2.0,46,0.00,,,0.00,Wunderground v.1.15,2013-03-11 03:05:00,
2013-03-10 23:15:00,50.8,31.8,30.29,SE,140,1.0,5.0,48,0.00,,,0.00,Wunderground v.1.15,2013-03-11 03:15:00,
2013-03-10 23:20:00,50.7,31.7,30.29,SE,136,1.0,1.0,48,0.00,,,0.00,Wunderground v.1.15,2013-03-11 03:20:00,
2013-03-10 23:30:00,50.6,32.1,30.28,SE,131,0.0,0.0,49,0.00,,,0.00,Wunderground v.1.15,2013-03-11 03:30:00,
2013-03-10 23:40:00,50.5,31.5,30.29,SE,134,1.0,1.0,48,0.00,,,0.00,Wunderground v.1.15,2013-03-11 03:40:00,
2013-03-10 23:50:00,50.2,31.2,30.29,SE,134,0.0,0.0,48,0.00,,,0.00,Wunderground v.1.15,2013-03-11 03:50:00,